Time;durP1;ratioP1;P1;durP2;ratioP2;P2;SDS_P1;SDS_P2;PMS_P1;PMS_P2;Temp;Humidity;BMP_temperature;BMP_pressure;BME280_temperature;BME280_humidity;BME280_pressure;Samples;Min_cycle;Max_cycle;Signal;HPM_P1;HPM_P2
2023/12/02 20:39:09;;;;;;;;;;;;;;;;;;5099591;22;20035;-83
2023/12/02 20:41:35;;;;;;;;;;;;;;;;;;5083739;28;19973;-82
2023/12/02 20:44:01;;;;;;;;;;;11.70;99.90;;;;;;5088126;28;19926;-92
2023/12/02 20:46:27;;;;;;;;;;;;;;;;;;5078514;28;19924;-93
2023/12/02 20:48:55;;;;;;;;;;;;;;;;;;5080794;28;19928;-91
2023/12/02 20:51:21;;;;;;;;;;;;;;;;;;5078622;28;20298;-89
2023/12/02 20:53:47;;;;;;;;;;;;;;;;;;5086225;28;19927;-84
2023/12/02 20:56:13;;;;;;;;;;;;;;;;;;5071782;28;19949;-86
2023/12/02 20:58:40;;;;;;;;;;;;;;;;;;5082640;28;19943;-86
2023/12/02 21:01:06;;;;;;;;;;;;;;;;;;5094149;28;20018;-86
2023/12/02 21:03:32;;;;;;;;;;;;;;;;;;5063319;28;20408;-85
2023/12/02 21:05:58;;;;;;;;;;;;;;;;;;5088297;28;20259;-86
2023/12/02 21:08:24;;;;;;;;;;;;;;;;;;5073817;28;19933;-85
2023/12/02 21:10:50;;;;;;;;;;;;;;;;;;5090855;28;20301;-86
2023/12/02 21:13:16;;;;;;;;;;;11.50;99.90;;;;;;5077250;28;19928;-85
2023/12/02 21:15:41;;;;;;;;;;;11.40;99.90;;;;;;5074356;28;19920;-86
2023/12/02 21:18:07;;;;;;;;;;;11.70;99.90;;;;;;5090848;28;20397;-87
2023/12/02 21:20:32;;;;;;;;;;;11.50;99.90;;;;;;5069096;28;20012;-86
2023/12/02 21:22:58;;;;;;;;;;;;;;;;;;5090148;28;19920;-85
2023/12/02 21:25:24;;;;;;;;;;;;;;;;;;5082122;28;19928;-81
2023/12/02 21:27:50;;;;;;;;;;;;;;;;;;5108754;28;19920;-81
2023/12/02 21:30:16;;;;;;;;;;;;;;;;;;5088905;28;19931;-81
2023/12/02 21:32:42;;;;;;;;;;;11.60;99.90;;;;;;5091881;28;20026;-81
2023/12/02 21:35:08;;;;;;;;;;;;;;;;;;5094062;28;20002;-80
2023/12/02 21:37:34;;;;;;;;;;;11.60;99.90;;;;;;5077808;28;19920;-80
2023/12/02 21:40:00;;;;;;;;;;;;;;;;;;5078127;28;20163;-80
2023/12/02 21:42:26;;;;;;;;;;;;;;;;;;5084887;28;19928;-80
2023/12/02 21:44:52;;;;;;;;;;;;;;;;;;5092174;28;19942;-80
2023/12/02 21:47:18;;;;;;;;;;;;;;;;;;5096297;28;20371;-80
2023/12/02 21:49:44;;;;;;;;;;;;;;;;;;5089869;28;19957;-80
2023/12/02 21:52:10;;;;;;;;;;;;;;;;;;5094825;28;19974;-80
2023/12/02 21:54:37;;;;;;;;;;;;;;;;;;5084993;28;19919;-80
2023/12/02 21:57:02;;;;;;;;;;;;;;;;;;5082595;28;21118;-80
2023/12/02 21:59:29;;;;;;;;;;;;;;;;;;5096958;28;20363;-81
2023/12/02 22:01:55;;;;;;;;;;;;;;;;;;5083206;28;19939;-82
2023/12/02 22:04:21;;;;;;;;;;;;;;;;;;5094924;28;20018;-80
2023/12/02 22:06:47;;;;;;;;;;;;;;;;;;5099356;28;19966;-81
2023/12/02 22:09:13;;;;;;;;;;;;;;;;;;5082409;28;19920;-80
2023/12/02 22:11:39;;;;;;;;;;;;;;;;;;5082646;28;19924;-80
2023/12/02 22:14:05;;;;;;;;;;;;;;;;;;5099145;28;20374;-80
2023/12/02 22:16:33;;;;;;;;;;;;;;;;;;5095902;28;19922;-80
2023/12/02 22:18:59;;;;;;;;;;;;;;;;;;5069819;28;20001;-81
2023/12/02 22:21:24;;;;;;;;;;;11.90;99.90;;;;;;5092232;28;19924;-81
2023/12/02 22:23:56;;;;;;;;;;;12.00;99.90;;;;;;5095671;28;19920;-81
2023/12/02 22:26:22;;;;;;;;;;;12.30;99.90;;;;;;5072479;28;19924;-86
2023/12/02 22:28:48;;;;;;;;;;;11.70;99.90;;;;;;5091169;28;19947;-86
2023/12/02 22:31:14;;;;;;;;;;;;;;;;;;5087115;28;19970;-87
2023/12/02 22:33:40;;;;;;;;;;;;;;;;;;5071651;28;20320;-86
2023/12/02 22:36:06;;;;;;;;;;;12.00;99.90;;;;;;5075694;28;19928;-85
2023/12/02 22:38:32;;;;;;;;;;;;;;;;;;5099571;28;19920;-84
2023/12/02 22:40:58;;;;;;;;;;;12.70;99.90;;;;;;5079475;28;19931;-85
2023/12/02 22:43:24;;;;;;;;;;;;;;;;;;5096231;28;19920;-84
2023/12/02 22:45:50;;;;;;;;;;;12.20;99.90;;;;;;5082188;28;20060;-84
2023/12/02 22:48:31;;;;;;;;;;;11.90;99.90;;;;;;5076002;28;19992;-85
2023/12/02 22:50:57;;;;;;;;;;;;;;;;;;5086857;28;19943;-85
2023/12/02 22:53:23;;;;;;;;;;;;;;;;;;5094351;28;19924;-85
2023/12/02 22:55:49;;;;;;;;;;;;;;;;;;5078074;28;19995;-85
2023/12/02 22:58:15;;;;;;;;;;;;;;;;;;5075322;28;19959;-85
2023/12/02 23:00:40;;;;;;;;;;;11.80;99.90;;;;;;5094932;28;19931;-84
2023/12/02 23:03:06;;;;;;;;;;;;;;;;;;5097631;28;20499;-84
2023/12/02 23:05:32;;;;;;;;;;;;;;;;;;5096873;28;20412;-84
2023/12/02 23:07:58;;;;;;;;;;;11.80;99.90;;;;;;5096103;28;19928;-84
2023/12/02 23:10:40;;;;;;;;;;;11.60;99.90;;;;;;5076542;28;19924;-84
2023/12/02 23:13:06;;;;;;;;;;;;;;;;;;5092141;28;19920;-84
2023/12/02 23:15:36;;;;;;;;;;;11.40;99.90;;;;;;5092969;28;20019;-85
2023/12/02 23:18:05;;;;;;;;;;;;;;;;;;5088703;28;19924;-84
2023/12/02 23:20:31;;;;;;;;;;;;;;;;;;5090098;28;19934;-84
2023/12/02 23:22:57;;;;;;;;;;;;;;;;;;5093719;28;19923;-84
2023/12/02 23:25:23;;;;;;;;;;;;;;;;;;5093152;28;20366;-85
2023/12/02 23:27:49;;;;;;;;;;;;;;;;;;5093036;28;19932;-84
2023/12/02 23:30:15;;;;;;;;;;;;;;;;;;5076905;28;19970;-84
2023/12/02 23:32:41;;;;;;;;;;;;;;;;;;5088029;28;20267;-84
2023/12/02 23:35:08;;;;;;;;;;;;;;;;;;5080452;28;20306;-84
2023/12/02 23:37:33;;;;;;;;;;;;;;;;;;5096538;28;19931;-84
2023/12/02 23:39:59;;;;;;;;;;;11.80;99.90;;;;;;5117048;28;20392;-84
2023/12/02 23:42:38;;;;;;;;;;;11.50;99.90;;;;;;5098860;28;19949;-84
2023/12/02 23:45:04;;;;;;;;;;;;;;;;;;5100587;28;19926;-84
2023/12/02 23:47:30;;;;;;;;;;;;;;;;;;5109045;28;19928;-84
2023/12/02 23:49:56;;;;;;;;;;;;;;;;;;5090257;28;19928;-84
2023/12/02 23:52:22;;;;;;;;;;;11.70;99.90;;;;;;5098450;28;20014;-84
2023/12/02 23:54:47;;;;;;;;;;;11.60;99.90;;;;;;5094452;28;19920;-84
2023/12/02 23:57:13;;;;;;;;;;;;;;;;;;5082291;28;19943;-84
2023/12/02 23:59:39;;;;;;;;;;;;;;;;;;5080410;28;19930;-85
